createdAt,value
2018-03-04T00:01:51.515Z,16.53
2018-03-04T00:04:19.326Z,18.13
2018-03-04T00:06:47.164Z,15.53
2018-03-04T00:09:14.990Z,17.27
2018-03-04T00:11:43.558Z,15.13
2018-03-04T00:14:11.380Z,17.20
2018-03-04T00:16:39.218Z,17.53
2018-03-04T00:19:07.048Z,16.23
2018-03-04T00:21:34.864Z,17.63
2018-03-04T00:24:02.686Z,17.30
2018-03-04T00:26:31.248Z,19.20
2018-03-04T00:28:59.079Z,18.17
2018-03-04T00:31:26.924Z,18.03
2018-03-04T00:33:54.744Z,19.70
2018-03-04T00:36:22.543Z,18.30
2018-03-04T00:38:51.115Z,16.37
2018-03-04T00:41:19.696Z,19.57
2018-03-04T00:43:48.250Z,18.00
2018-03-04T00:46:16.079Z,20.77
2018-03-04T00:48:43.905Z,19.60
2018-03-04T00:51:12.531Z,19.37
2018-03-04T00:53:40.379Z,22.07
2018-03-04T00:56:08.252Z,22.03
2018-03-04T00:58:36.104Z,19.77
2018-03-04T01:01:03.975Z,21.90
2018-03-04T01:03:31.836Z,20.57
2018-03-04T01:05:59.673Z,21.57
2018-03-04T01:08:28.605Z,23.83
2018-03-04T01:10:56.451Z,21.10
2018-03-04T01:13:24.297Z,20.37
2018-03-04T01:15:52.828Z,20.47
2018-03-04T01:18:20.579Z,19.30
2018-03-04T01:20:48.356Z,19.60
2018-03-04T01:23:16.092Z,20.43
2018-03-04T01:25:43.829Z,19.27
2018-03-04T01:28:12.371Z,19.50
2018-03-04T01:30:40.148Z,20.57
2018-03-04T01:33:07.894Z,19.83
2018-03-04T01:35:35.627Z,20.03
2018-03-04T01:38:03.369Z,18.57
2018-03-04T01:40:31.931Z,18.23
2018-03-04T01:42:59.740Z,18.50
2018-03-04T01:45:27.485Z,18.63
2018-03-04T01:47:55.265Z,18.27
2018-03-04T01:50:23.037Z,20.77
2018-03-04T01:52:50.796Z,19.47
2018-03-04T01:55:18.568Z,21.47
2018-03-04T01:57:46.332Z,19.87
2018-03-04T02:00:14.203Z,21.37
2018-03-04T02:02:41.983Z,21.63
2018-03-04T02:05:09.749Z,21.50
2018-03-04T02:07:37.519Z,20.53
2018-03-04T02:10:05.328Z,20.43
2018-03-04T02:12:33.107Z,22.33
2018-03-04T02:15:00.856Z,23.27
2018-03-04T02:17:28.609Z,19.53
2018-03-04T02:19:56.340Z,20.30
2018-03-04T02:22:24.103Z,18.90
2018-03-04T02:24:51.896Z,20.53
2018-03-04T02:27:19.656Z,21.60
2018-03-04T02:29:47.399Z,19.47
2018-03-04T02:32:15.923Z,21.87
2018-03-04T02:34:43.670Z,18.27
2018-03-04T02:37:11.424Z,20.93
2018-03-04T02:39:40.000Z,22.83
2018-03-04T02:42:08.446Z,19.03
2018-03-04T02:44:36.172Z,19.97
2018-03-04T02:47:03.860Z,21.13
2018-03-04T02:49:31.522Z,21.03
2018-03-04T02:51:59.313Z,19.90
2018-03-04T02:54:27.886Z,23.93
2018-03-04T02:56:55.722Z,20.50
2018-03-04T02:59:23.549Z,20.37
2018-03-04T03:01:51.349Z,22.80
2018-03-04T03:04:19.125Z,19.30
2018-03-04T03:06:46.813Z,24.60
2018-03-04T03:09:14.457Z,21.27
2018-03-04T03:11:42.111Z,20.97
2018-03-04T03:14:09.763Z,22.23
2018-03-04T03:16:37.454Z,20.27
2018-03-04T03:19:05.128Z,23.23
2018-03-04T03:21:33.571Z,22.87
2018-03-04T03:24:01.226Z,20.30
2018-03-04T03:26:28.938Z,22.30
2018-03-04T03:28:57.342Z,22.83
2018-03-04T03:31:25.002Z,18.43
2018-03-04T03:33:52.679Z,18.93
2018-03-04T03:36:20.346Z,18.77
2018-03-04T03:38:47.990Z,19.13
2018-03-04T03:41:15.685Z,19.10
2018-03-04T03:43:43.368Z,21.37
2018-03-04T03:46:11.784Z,20.60
2018-03-04T03:48:39.425Z,18.47
2018-03-04T03:51:07.862Z,19.10
2018-03-04T03:53:35.558Z,19.60
2018-03-04T03:56:04.011Z,19.77
2018-03-04T03:58:31.675Z,17.53
2018-03-04T04:00:59.513Z,17.50
2018-03-04T04:03:27.296Z,16.87
2018-03-04T04:05:54.959Z,15.40
2018-03-04T04:08:22.603Z,19.63
2018-03-04T04:10:50.257Z,16.80
2018-03-04T04:13:17.904Z,15.70
2018-03-04T04:15:45.548Z,16.67
2018-03-04T04:18:13.202Z,17.87
2018-03-04T04:20:40.885Z,15.90
2018-03-04T04:23:09.340Z,18.13
2018-03-04T04:25:37.087Z,19.50
2018-03-04T04:28:04.872Z,16.80
2018-03-04T04:30:32.686Z,16.60
2018-03-04T04:33:00.432Z,20.93
2018-03-04T04:35:28.186Z,19.87
2018-03-04T04:37:55.864Z,20.53
2018-03-04T04:40:23.585Z,19.43
2018-03-04T04:42:51.251Z,18.50
2018-03-04T04:45:18.932Z,20.23
2018-03-04T04:47:46.602Z,21.77
2018-03-04T04:50:14.278Z,21.07
2018-03-04T04:52:41.943Z,22.07
2018-03-04T04:55:09.587Z,22.70
2018-03-04T04:57:37.238Z,20.10
2018-03-04T05:00:04.918Z,21.87
2018-03-04T05:02:32.583Z,24.20
2018-03-04T05:05:00.309Z,19.50
2018-03-04T05:07:27.975Z,20.70
2018-03-04T05:09:55.618Z,23.43
2018-03-04T05:12:23.261Z,20.33
2018-03-04T05:14:50.933Z,19.83
2018-03-04T05:17:18.577Z,21.73
2018-03-04T05:19:47.000Z,19.43
2018-03-04T05:22:14.647Z,18.40
2018-03-04T05:24:42.309Z,16.47
2018-03-04T05:27:09.955Z,17.43
2018-03-04T05:29:37.621Z,15.93
2018-03-04T05:32:05.346Z,16.03
2018-03-04T05:34:33.864Z,19.23
2018-03-04T05:37:01.617Z,15.73
2018-03-04T05:39:29.361Z,17.77
2018-03-04T05:41:57.121Z,17.33
2018-03-04T05:44:24.874Z,16.97
2018-03-04T05:46:53.383Z,18.30
2018-03-04T05:49:21.125Z,20.80
2018-03-04T05:51:48.873Z,22.10
2018-03-04T05:54:17.395Z,21.90
2018-03-04T05:56:45.129Z,20.90
2018-03-04T05:59:12.879Z,20.00
2018-03-04T06:01:41.391Z,24.37
2018-03-04T06:04:09.923Z,19.80
2018-03-04T06:06:37.673Z,19.87
2018-03-04T06:09:05.430Z,19.13
2018-03-04T06:11:33.195Z,18.67
2018-03-04T06:14:00.946Z,18.57
2018-03-04T06:16:28.700Z,17.67
2018-03-04T06:18:57.217Z,17.80
2018-03-04T06:21:24.985Z,17.10
2018-03-04T06:23:52.720Z,17.50
2018-03-04T06:26:20.490Z,17.67
2018-03-04T06:28:48.237Z,16.90
2018-03-04T06:31:15.977Z,16.70
2018-03-04T06:33:43.716Z,17.33
2018-03-04T06:36:12.243Z,17.53
2018-03-04T06:38:39.987Z,17.20
2018-03-04T06:41:07.767Z,18.13
2018-03-04T06:43:35.522Z,16.93
2018-03-04T06:46:03.258Z,17.83
2018-03-04T06:48:31.013Z,16.60
2018-03-04T06:50:59.517Z,16.83
2018-03-04T06:53:27.272Z,16.10
2018-03-04T06:55:55.014Z,15.97
2018-03-04T06:58:23.566Z,17.53
2018-03-04T07:00:51.305Z,17.77
2018-03-04T07:03:19.033Z,15.87
2018-03-04T07:05:46.777Z,16.30
2018-03-04T07:08:15.302Z,16.03
2018-03-04T07:10:43.044Z,16.13
2018-03-04T07:13:10.835Z,17.33
2018-03-04T07:15:38.593Z,17.17
2018-03-04T07:18:06.332Z,16.53
2018-03-04T07:20:34.080Z,17.47
2018-03-04T07:23:02.577Z,18.57
2018-03-04T07:25:30.327Z,17.23
2018-03-04T07:27:58.090Z,19.00
2018-03-04T07:30:25.845Z,17.83
2018-03-04T07:32:54.354Z,18.07
2018-03-04T07:35:22.891Z,18.67
2018-03-04T07:37:51.411Z,17.33
2018-03-04T07:40:19.163Z,18.13
2018-03-04T07:42:46.919Z,16.13
2018-03-04T07:45:15.612Z,17.17
2018-03-04T07:47:43.355Z,17.27
2018-03-04T07:50:11.872Z,18.43
2018-03-04T07:52:39.616Z,18.60
2018-03-04T07:55:07.349Z,17.37
2018-03-04T07:57:35.854Z,17.00
2018-03-04T08:00:03.664Z,17.13
2018-03-04T08:02:31.422Z,16.53
2018-03-04T08:04:59.185Z,16.30
2018-03-04T08:07:26.931Z,16.37
2018-03-04T08:09:54.672Z,16.00
2018-03-04T08:12:22.485Z,16.10
2018-03-04T08:14:50.244Z,17.30
2018-03-04T08:17:18.003Z,15.67
2018-03-04T08:19:45.781Z,16.57
2018-03-04T08:22:13.534Z,17.33
2018-03-04T08:24:41.316Z,17.43
2018-03-04T08:27:20.965Z,15.83
2018-03-04T08:29:49.469Z,16.80
2018-03-04T08:32:17.200Z,16.23
2018-03-04T08:34:44.940Z,21.60
2018-03-04T08:37:12.705Z,15.77
2018-03-04T08:39:40.453Z,17.87
2018-03-04T08:42:08.136Z,17.90
2018-03-04T08:44:35.830Z,17.63
2018-03-04T08:47:04.336Z,16.53
2018-03-04T08:49:32.006Z,14.73
2018-03-04T08:51:59.755Z,16.77
2018-03-04T08:54:27.587Z,14.90
2018-03-04T08:56:56.116Z,11.53
2018-03-04T08:59:23.868Z,15.00
2018-03-04T09:01:51.730Z,15.30
2018-03-04T09:04:19.480Z,15.80
2018-03-04T09:06:47.219Z,15.20
2018-03-04T09:09:15.747Z,11.47
2018-03-04T09:11:43.485Z,12.40
2018-03-04T09:14:11.271Z,11.87
2018-03-04T09:16:38.958Z,12.80
2018-03-04T09:19:06.653Z,10.97
2018-03-04T09:21:35.105Z,12.80
2018-03-04T09:24:02.795Z,11.73
2018-03-04T09:26:31.236Z,12.00
2018-03-04T09:28:58.906Z,12.27
2018-03-04T09:31:26.578Z,15.87
2018-03-04T09:33:54.267Z,15.77
2018-03-04T09:36:22.671Z,16.07
2018-03-04T09:38:50.342Z,15.80
2018-03-04T09:41:18.000Z,14.47
2018-03-04T09:43:45.649Z,16.00
2018-03-04T09:46:13.349Z,15.60
2018-03-04T09:48:41.026Z,13.87
2018-03-04T09:51:08.693Z,13.73
2018-03-04T09:53:36.382Z,13.43
2018-03-04T09:56:04.098Z,12.77
2018-03-04T09:58:31.902Z,12.53
2018-03-04T10:01:00.382Z,13.47
2018-03-04T10:03:28.787Z,13.87
2018-03-04T10:05:56.478Z,16.17
2018-03-04T10:08:24.166Z,13.57
2018-03-04T10:10:51.803Z,12.53
2018-03-04T10:13:19.488Z,13.60
2018-03-04T10:15:48.041Z,13.20
2018-03-04T10:18:15.785Z,13.00
2018-03-04T10:20:43.556Z,14.90
2018-03-04T10:23:11.340Z,17.57
2018-03-04T10:25:39.091Z,17.30
2018-03-04T10:28:06.873Z,20.37
2018-03-04T10:30:35.314Z,18.47
2018-03-04T10:33:03.052Z,18.73
2018-03-04T10:35:30.757Z,17.13
2018-03-04T10:37:58.425Z,19.80
2018-03-04T10:40:26.066Z,17.83
2018-03-04T10:42:53.727Z,18.13
2018-03-04T10:45:21.413Z,17.77
2018-03-04T10:47:49.056Z,18.30
2018-03-04T10:50:16.726Z,18.87
2018-03-04T10:52:44.408Z,20.47
2018-03-04T10:55:12.893Z,17.97
2018-03-04T10:57:41.322Z,17.87
2018-03-04T11:00:09.047Z,19.70
2018-03-04T11:02:38.374Z,17.13
2018-03-04T11:05:06.107Z,17.97
2018-03-04T11:07:34.550Z,20.10
2018-03-04T11:10:02.263Z,16.77
2018-03-04T11:12:29.968Z,18.97
2018-03-04T11:14:57.635Z,17.03
2018-03-04T11:17:25.316Z,17.73
2018-03-04T11:19:53.730Z,18.27
2018-03-04T11:22:21.372Z,19.57
2018-03-04T11:24:49.818Z,20.27
2018-03-04T11:27:17.496Z,18.73
2018-03-04T11:29:45.900Z,20.57
2018-03-04T11:32:13.553Z,19.67
2018-03-04T11:34:41.219Z,21.87
2018-03-04T11:37:08.884Z,21.03
2018-03-04T11:39:36.542Z,21.57
2018-03-04T11:42:04.214Z,21.33
2018-03-04T11:44:31.877Z,25.63
2018-03-04T11:46:59.528Z,22.23
2018-03-04T11:49:27.210Z,21.90
2018-03-04T11:51:54.884Z,22.53
2018-03-04T11:54:22.539Z,20.77
2018-03-04T11:56:50.175Z,20.97
2018-03-04T11:59:17.837Z,18.07
2018-03-04T12:01:45.501Z,22.47
2018-03-04T12:04:13.155Z,21.07
2018-03-04T12:06:40.799Z,21.30
2018-03-04T12:09:08.454Z,20.13
2018-03-04T12:11:36.886Z,20.60
2018-03-04T12:14:04.580Z,21.40
2018-03-04T12:16:33.038Z,20.97
2018-03-04T12:19:00.688Z,21.07
2018-03-04T12:21:28.350Z,21.10
2018-03-04T12:23:56.854Z,20.13
2018-03-04T12:26:25.290Z,22.63
2018-03-04T12:28:52.954Z,20.73
2018-03-04T12:31:20.596Z,23.67
2018-03-04T12:33:48.275Z,23.50
2018-03-04T12:36:15.941Z,22.53
2018-03-04T12:38:43.619Z,24.70
2018-03-04T12:41:11.325Z,22.93
2018-03-04T12:43:39.027Z,22.27
2018-03-04T12:46:06.708Z,22.70
2018-03-04T12:48:34.417Z,23.40
2018-03-04T12:51:02.145Z,23.03
2018-03-04T12:53:30.620Z,23.13
2018-03-04T12:55:58.294Z,23.53
2018-03-04T12:58:26.737Z,23.50
2018-03-04T13:00:55.522Z,23.27
2018-03-04T13:03:23.203Z,23.20
2018-03-04T13:05:50.965Z,24.50
2018-03-04T13:08:18.691Z,23.73
2018-03-04T13:10:46.355Z,23.67
2018-03-04T13:13:14.042Z,23.80
2018-03-04T13:15:41.703Z,24.53
2018-03-04T13:18:09.370Z,25.10
2018-03-04T13:20:37.923Z,26.53
2018-03-04T13:23:05.613Z,24.77
2018-03-04T13:25:33.279Z,25.60
2018-03-04T13:28:00.939Z,22.50
2018-03-04T13:30:29.491Z,22.77
2018-03-04T13:32:58.048Z,22.70
2018-03-04T13:35:25.746Z,23.03
2018-03-04T13:37:54.188Z,23.80
2018-03-04T13:40:21.828Z,23.20
2018-03-04T13:42:49.487Z,23.50
2018-03-04T13:45:17.905Z,22.07
2018-03-04T13:47:45.556Z,23.10
2018-03-04T13:50:16.136Z,22.03
2018-03-04T13:52:45.163Z,23.70
2018-03-04T13:55:12.823Z,24.10
2018-03-04T13:57:40.594Z,25.73
2018-03-04T14:00:08.335Z,24.50
2018-03-04T14:02:36.007Z,23.70
2018-03-04T14:05:03.679Z,26.20
2018-03-04T14:07:31.346Z,28.80
2018-03-04T14:09:59.731Z,27.60
2018-03-04T14:12:27.438Z,27.37
2018-03-04T14:14:55.906Z,26.83
2018-03-04T14:17:23.571Z,26.97
2018-03-04T14:19:52.022Z,25.47
2018-03-04T14:22:19.702Z,24.70
2018-03-04T14:24:48.334Z,27.27
2018-03-04T14:27:16.163Z,27.77
2018-03-04T14:29:44.765Z,26.13
2018-03-04T14:32:12.596Z,25.13
2018-03-04T14:34:41.175Z,25.43
2018-03-04T14:37:09.023Z,25.57
2018-03-04T14:39:36.862Z,27.47
2018-03-04T14:42:04.716Z,24.90
2018-03-04T14:44:32.535Z,26.77
2018-03-04T14:47:01.135Z,26.83
2018-03-04T14:49:29.748Z,27.67
2018-03-04T14:51:57.464Z,26.73
2018-03-04T14:54:25.177Z,26.97
2018-03-04T14:56:52.805Z,28.17
2018-03-04T14:59:21.782Z,26.00
2018-03-04T15:01:49.478Z,27.83
2018-03-04T15:04:17.171Z,28.23
2018-03-04T15:06:45.431Z,28.27
2018-03-04T15:09:13.086Z,28.80
2018-03-04T15:11:40.782Z,28.67
2018-03-04T15:14:08.472Z,29.67
2018-03-04T15:16:36.882Z,28.20
2018-03-04T15:19:05.115Z,29.87
2018-03-04T15:21:33.395Z,28.80
2018-03-04T15:24:01.863Z,26.93
2018-03-04T15:26:29.512Z,30.67
2018-03-04T15:28:57.182Z,30.30
2018-03-04T15:31:24.864Z,30.60
2018-03-04T15:33:53.271Z,30.47
2018-03-04T15:36:20.947Z,29.60
2018-03-04T15:38:49.427Z,30.07
2018-03-04T15:41:18.291Z,29.23
2018-03-04T15:43:47.250Z,30.53
2018-03-04T15:46:14.927Z,30.77
2018-03-04T15:48:44.340Z,30.77
2018-03-04T15:51:12.111Z,30.53
2018-03-04T15:53:39.793Z,30.80
2018-03-04T15:56:07.509Z,35.13
2018-03-04T15:58:35.937Z,32.53
2018-03-04T16:01:03.623Z,30.33
2018-03-04T16:03:31.290Z,31.00
2018-03-04T16:05:59.024Z,31.50
2018-03-04T16:08:26.715Z,29.50
2018-03-04T16:10:54.440Z,29.67
2018-03-04T16:13:22.177Z,30.57
2018-03-04T16:15:50.750Z,32.80
2018-03-04T16:18:19.339Z,30.60
2018-03-04T16:20:47.094Z,30.50
2018-03-04T16:23:14.856Z,32.07
2018-03-04T16:25:42.664Z,31.63
2018-03-04T16:28:10.394Z,30.27
2018-03-04T16:30:39.172Z,31.33
2018-03-04T16:33:06.926Z,31.93
2018-03-04T16:35:34.689Z,30.20
2018-03-04T16:38:03.072Z,29.27
2018-03-04T16:40:30.832Z,30.80
2018-03-04T16:42:59.657Z,30.13
2018-03-04T16:45:27.410Z,31.70
2018-03-04T16:47:56.042Z,31.33
2018-03-04T16:50:23.776Z,29.63
2018-03-04T16:52:51.512Z,30.60
2018-03-04T16:55:19.266Z,29.33
2018-03-04T16:57:47.029Z,37.53
2018-03-04T17:00:14.820Z,30.17
2018-03-04T17:02:42.558Z,30.87
2018-03-04T17:05:11.171Z,31.53
2018-03-04T17:07:38.925Z,31.20
2018-03-04T17:10:06.818Z,29.73
2018-03-04T17:12:35.492Z,31.03
2018-03-04T17:15:03.254Z,30.80
2018-03-04T17:17:31.020Z,31.53
2018-03-04T17:19:58.820Z,30.70
2018-03-04T17:22:26.565Z,31.07
2018-03-04T17:24:55.074Z,32.70
2018-03-04T17:27:22.830Z,33.00
2018-03-04T17:29:50.577Z,29.70
2018-03-04T17:32:19.114Z,29.00
2018-03-04T17:34:46.881Z,28.40
2018-03-04T17:37:14.659Z,29.47
2018-03-04T17:39:43.168Z,27.20
2018-03-04T17:42:11.734Z,30.07
2018-03-04T17:44:41.237Z,24.80
2018-03-04T17:47:09.752Z,25.67
2018-03-04T17:49:37.505Z,25.90
2018-03-04T17:52:05.889Z,25.20
2018-03-04T17:57:08.968Z,27.37
2018-03-04T17:59:37.481Z,26.43
2018-03-04T18:02:06.265Z,27.23
2018-03-04T18:07:02.625Z,26.20
2018-03-04T18:09:30.378Z,25.80
2018-03-04T18:11:58.902Z,26.80
2018-03-04T18:14:26.688Z,27.60
2018-03-04T18:16:55.268Z,27.03
2018-03-04T18:19:23.788Z,27.30
2018-03-04T18:21:53.223Z,29.87
2018-03-04T18:24:20.993Z,29.33
2018-03-04T18:26:49.537Z,29.73
2018-03-04T18:29:17.289Z,30.83
2018-03-04T18:31:45.048Z,29.93
2018-03-04T18:34:12.830Z,29.50
2018-03-04T18:36:42.464Z,28.37
2018-03-04T18:39:10.225Z,29.37
2018-03-04T18:41:37.979Z,29.17
2018-03-04T18:44:05.722Z,32.07
2018-03-04T18:46:33.466Z,30.53
2018-03-04T18:49:02.161Z,32.30
2018-03-04T18:51:29.912Z,30.63
2018-03-04T18:53:57.680Z,32.33
2018-03-04T18:56:25.629Z,33.10
2018-03-04T18:58:54.565Z,32.83
2018-03-04T19:01:22.300Z,30.63
2018-03-04T19:03:50.053Z,31.83
2018-03-04T19:06:17.831Z,31.00
2018-03-04T19:08:45.596Z,32.03
2018-03-04T19:11:13.348Z,31.57
2018-03-04T19:13:41.098Z,30.27
2018-03-04T19:16:08.852Z,30.47
2018-03-04T19:18:37.407Z,29.03
2018-03-04T19:21:05.180Z,29.73
2018-03-04T19:23:33.080Z,29.17
2018-03-04T19:26:00.841Z,30.77
2018-03-04T19:28:28.616Z,29.47
2018-03-04T19:30:56.386Z,33.83
2018-03-04T19:33:24.130Z,30.90
2018-03-04T19:35:51.889Z,30.63
2018-03-04T19:38:19.664Z,31.47
2018-03-04T19:40:47.412Z,30.43
2018-03-04T19:43:15.165Z,30.03
2018-03-04T19:45:43.743Z,27.23
2018-03-04T19:48:12.272Z,32.07
2018-03-04T19:50:41.166Z,31.90
2018-03-04T19:53:10.110Z,29.43
2018-03-04T19:55:38.901Z,27.47
2018-03-04T19:58:07.507Z,31.90
2018-03-04T20:00:35.258Z,30.70
2018-03-04T20:03:04.822Z,32.47
2018-03-04T20:05:33.366Z,29.33
2018-03-04T20:08:02.125Z,31.70
2018-03-04T20:10:29.885Z,31.17
2018-03-04T20:12:59.457Z,32.17
2018-03-04T20:15:28.028Z,32.00
2018-03-04T20:17:57.015Z,32.20
2018-03-04T20:20:24.842Z,32.97
2018-03-04T20:22:53.257Z,34.83
2018-03-04T20:25:22.629Z,35.00
2018-03-04T20:27:51.290Z,32.17
2018-03-04T20:30:19.911Z,30.83
2018-03-04T20:32:49.352Z,31.73
2018-03-04T20:35:17.104Z,30.63
2018-03-04T20:37:45.261Z,28.80
2018-03-04T20:40:13.072Z,31.67
2018-03-04T20:42:41.592Z,28.97
2018-03-04T20:45:10.224Z,30.70
2018-03-04T20:47:38.791Z,28.87
2018-03-04T20:50:07.513Z,27.97
2018-03-04T20:52:36.236Z,27.10
2018-03-04T20:55:04.048Z,28.10
2018-03-04T20:57:32.645Z,27.63
2018-03-04T21:00:00.875Z,26.60
2018-03-04T21:02:29.303Z,26.67
2018-03-04T21:05:00.809Z,26.10
2018-03-04T21:07:30.064Z,24.03
2018-03-04T21:09:58.800Z,23.80
2018-03-04T21:12:27.672Z,24.23
2018-03-04T21:14:57.194Z,23.50
2018-03-04T21:17:25.832Z,24.77
2018-03-04T21:19:56.189Z,23.70
2018-03-04T21:22:24.081Z,23.97
2018-03-04T21:24:53.612Z,24.03
2018-03-04T21:27:23.706Z,23.43
2018-03-04T21:29:53.764Z,22.27
2018-03-04T21:32:21.443Z,22.47
2018-03-04T21:34:49.687Z,21.07
2018-03-04T21:37:17.347Z,21.77
2018-03-04T21:39:45.877Z,21.10
2018-03-04T21:42:14.536Z,21.73
2018-03-04T21:44:42.184Z,23.97
2018-03-04T21:47:09.836Z,22.03
2018-03-04T21:49:37.578Z,23.00
2018-03-04T21:52:06.929Z,21.97
2018-03-04T21:54:34.888Z,21.57
2018-03-04T21:57:02.706Z,21.47
2018-03-04T21:59:32.290Z,21.20
2018-03-04T22:02:04.569Z,19.53
2018-03-04T22:04:34.971Z,18.33
2018-03-04T22:07:02.804Z,17.63
2018-03-04T22:09:30.601Z,17.37
2018-03-04T22:11:58.386Z,17.53
2018-03-04T22:14:26.984Z,16.53
2018-03-04T22:16:54.821Z,14.47
2018-03-04T22:19:23.245Z,15.60
2018-03-04T22:21:50.896Z,14.90
2018-03-04T22:24:18.566Z,14.13
2018-03-04T22:26:46.212Z,15.60
2018-03-04T22:29:13.870Z,13.50
2018-03-04T22:31:42.300Z,14.23
2018-03-04T22:34:09.960Z,14.03
2018-03-04T22:36:37.647Z,15.90
2018-03-04T22:39:05.370Z,20.17
2018-03-04T22:41:33.020Z,17.63
2018-03-04T22:44:00.679Z,18.60
2018-03-04T22:46:28.354Z,19.50
2018-03-04T22:48:56.000Z,20.50
2018-03-04T22:51:23.667Z,19.60
2018-03-04T22:53:51.334Z,20.43
2018-03-04T22:56:18.977Z,21.30
2018-03-04T22:58:46.620Z,20.07
2018-03-04T23:01:14.295Z,21.47
2018-03-04T23:03:41.955Z,22.17
2018-03-04T23:06:09.607Z,21.60
2018-03-04T23:08:37.271Z,23.53
2018-03-04T23:11:04.916Z,23.00
2018-03-04T23:13:33.377Z,23.47
2018-03-04T23:16:01.803Z,23.30
2018-03-04T23:18:29.450Z,23.17
2018-03-04T23:20:57.104Z,22.27
2018-03-04T23:23:24.796Z,22.40
2018-03-04T23:25:52.437Z,22.60
2018-03-04T23:28:20.091Z,22.37
2018-03-04T23:30:47.736Z,21.57
2018-03-04T23:33:16.166Z,23.13
2018-03-04T23:35:43.828Z,23.13
2018-03-04T23:38:11.575Z,21.63
2018-03-04T23:40:39.219Z,23.83
2018-03-04T23:43:06.881Z,21.77
2018-03-04T23:45:34.539Z,21.60
2018-03-04T23:48:02.187Z,22.33
2018-03-04T23:50:29.832Z,22.73
2018-03-04T23:52:58.264Z,21.50
2018-03-04T23:55:25.935Z,21.33
2018-03-04T23:57:53.591Z,22.13
